Time;durP1;ratioP1;P1;durP2;ratioP2;P2;SDS_P1;SDS_P2;PMS_P1;PMS_P2;Temp;Humidity;BMP_temperature;BMP_pressure;BME280_temperature;BME280_humidity;BME280_pressure;Samples;Min_cycle;Max_cycle;Signal;HPM_P1;HPM_P2
2022/03/08 00:00:29;;;;;;;16.17;10.60;;;1.90;90.80;;;;;;4951470;28;20483;-66
2022/03/08 00:02:57;;;;;;;13.88;9.88;;;1.90;90.80;;;;;;4952578;29;20043;-67
2022/03/08 00:05:24;;;;;;;17.10;11.80;;;1.80;90.90;;;;;;4953650;28;20149;-66
2022/03/08 00:07:53;;;;;;;17.02;11.57;;;1.80;91.30;;;;;;4953805;28;20407;-66
2022/03/08 00:10:21;;;;;;;17.80;11.73;;;1.80;91.40;;;;;;4959237;28;20054;-66
2022/03/08 00:12:49;;;;;;;18.13;10.02;;;1.80;91.30;;;;;;4947201;29;20043;-66
2022/03/08 00:15:20;;;;;;;19.63;11.90;;;1.70;91.40;;;;;;4936972;29;20070;-68
2022/03/08 00:17:48;;;;;;;16.45;11.55;;;1.80;91.70;;;;;;4952029;28;20051;-66
2022/03/08 00:20:15;;;;;;;15.27;10.88;;;1.70;91.50;;;;;;4952952;28;20050;-66
2022/03/08 00:22:42;;;;;;;16.02;11.88;;;1.70;91.90;;;;;;4952614;29;20054;-66
2022/03/08 00:25:10;;;;;;;18.38;12.02;;;1.70;92.20;;;;;;4952054;29;20062;-66
2022/03/08 00:27:37;;;;;;;18.48;11.32;;;1.60;92.20;;;;;;4951830;29;20050;-66
2022/03/08 00:30:05;;;;;;;16.05;10.73;;;1.50;92.10;;;;;;4936063;29;20119;-66
2022/03/08 00:32:32;;;;;;;15.27;10.77;;;1.50;92.50;;;;;;4953686;29;20047;-66
2022/03/08 00:34:59;;;;;;;14.90;10.63;;;1.50;92.70;;;;;;4933268;29;20380;-66
2022/03/08 00:37:26;;;;;;;16.38;11.88;;;1.40;92.80;;;;;;4936021;29;20070;-66
2022/03/08 00:39:53;;;;;;;16.08;10.77;;;1.30;93.10;;;;;;4934867;29;20060;-66
2022/03/08 00:42:20;;;;;;;14.13;10.35;;;1.30;93.30;;;;;;4913611;29;20079;-66
2022/03/08 00:44:47;;;;;;;15.63;10.77;;;1.20;93.70;;;;;;4912368;29;20507;-66
2022/03/08 00:47:15;;;;;;;16.10;10.63;;;1.20;93.40;;;;;;4951894;29;20047;-67
2022/03/08 00:49:42;;;;;;;15.27;10.63;;;1.10;94.10;;;;;;4949627;28;20055;-66
2022/03/08 00:52:09;;;;;;;16.23;10.52;;;1.10;94.20;;;;;;4925302;29;20051;-66
2022/03/08 00:54:36;;;;;;;18.38;11.25;;;1.00;94.20;;;;;;4935481;29;20065;-67
2022/03/08 00:57:04;;;;;;;17.50;10.32;;;1.10;93.90;;;;;;4955675;29;20129;-66
2022/03/08 00:59:31;;;;;;;15.80;9.60;;;1.10;93.90;;;;;;4954182;28;20059;-66
2022/03/08 01:01:58;;;;;;;17.80;11.25;;;1.10;93.80;;;;;;4955554;29;20143;-66
2022/03/08 01:04:25;;;;;;;16.70;11.88;;;1.10;93.80;;;;;;4956279;29;20502;-66
2022/03/08 01:06:52;;;;;;;20.95;12.02;;;1.10;93.70;;;;;;4955473;29;20533;-67
2022/03/08 01:09:19;;;;;;;18.75;11.23;;;1.10;93.60;;;;;;4936108;29;20062;-66
2022/03/08 01:11:48;;;;;;;19.10;11.48;;;1.10;93.70;;;;;;4951607;29;20336;-67
2022/03/08 01:14:15;;;;;;;15.52;11.05;;;1.20;93.60;;;;;;4955707;28;20093;-68
2022/03/08 01:16:42;;;;;;;17.10;12.05;;;1.20;93.50;;;;;;4945248;29;20159;-66
2022/03/08 01:19:09;;;;;;;16.17;12.45;;;1.20;93.40;;;;;;4955651;28;20106;-66
2022/03/08 01:21:37;;;;;;;23.70;12.73;;;1.30;93.40;;;;;;4939474;29;20047;-67
2022/03/08 01:24:04;;;;;;;18.40;11.95;;;1.30;93.30;;;;;;4928108;29;20083;-66
2022/03/08 01:26:31;;;;;;;17.20;11.27;;;1.30;93.30;;;;;;4939926;29;20054;-66
2022/03/08 01:28:59;;;;;;;18.73;12.50;;;1.40;93.20;;;;;;4954904;28;20162;-67
2022/03/08 01:31:27;;;;;;;18.20;12.45;;;1.30;93.20;;;;;;4952516;28;20440;-66
2022/03/08 01:33:54;;;;;;;20.08;12.75;;;1.30;93.20;;;;;;4954583;29;20051;-66
2022/03/08 01:36:22;;;;;;;18.75;11.32;;;1.30;93.20;;;;;;4938545;29;20065;-66
2022/03/08 01:38:50;;;;;;;19.40;12.82;;;1.30;93.20;;;;;;4954920;29;20134;-67
2022/03/08 01:41:17;;;;;;;18.15;11.90;;;1.30;93.10;;;;;;4935626;29;20062;-66
2022/03/08 01:43:45;;;;;;;18.65;12.30;;;1.30;93.40;;;;;;4953074;29;20098;-67
2022/03/08 01:46:13;;;;;;;18.38;12.43;;;1.30;93.00;;;;;;4955773;28;20135;-66
2022/03/08 01:48:40;;;;;;;21.23;12.27;;;1.30;93.00;;;;;;4954856;29;20062;-66
2022/03/08 01:51:07;;;;;;;20.08;12.38;;;1.30;93.20;;;;;;4955804;28;20043;-66
2022/03/08 01:53:35;;;;;;;20.02;14.40;;;1.30;93.60;;;;;;4955068;29;20089;-66
2022/03/08 01:56:02;;;;;;;17.30;12.18;;;1.20;93.20;;;;;;4953937;29;20063;-66
2022/03/08 01:58:29;;;;;;;17.92;11.95;;;1.20;93.10;;;;;;4953706;28;20129;-66
2022/03/08 02:00:56;;;;;;;19.70;13.15;;;1.20;93.40;;;;;;4937916;29;20051;-66
2022/03/08 02:03:24;;;;;;;21.83;12.70;;;1.20;93.20;;;;;;4922070;29;20059;-66
2022/03/08 02:05:51;;;;;;;19.92;12.50;;;1.20;93.20;;;;;;4943588;29;20051;-66
2022/03/08 02:08:18;;;;;;;18.75;11.77;;;1.20;93.00;;;;;;4953902;29;20039;-66
2022/03/08 02:10:45;;;;;;;19.55;13.23;;;1.10;93.10;;;;;;4939159;29;20483;-66
2022/03/08 02:13:12;;;;;;;22.15;12.73;;;1.10;93.10;;;;;;4937883;29;20043;-66
2022/03/08 02:15:39;;;;;;;19.33;12.45;;;1.10;93.10;;;;;;4953589;29;20047;-66
2022/03/08 02:18:06;;;;;;;21.13;13.55;;;1.10;92.90;;;;;;4955320;28;20062;-66
2022/03/08 02:20:33;;;;;;;22.50;14.27;;;1.10;93.00;;;;;;4952967;29;20058;-66
2022/03/08 02:23:00;;;;;;;20.88;12.55;;;1.10;93.00;;;;;;4937689;29;20465;-66
2022/03/08 02:25:27;;;;;;;21.83;13.18;;;1.10;93.10;;;;;;4955468;28;20543;-66
2022/03/08 02:27:56;;;;;;;22.45;12.32;;;1.10;93.70;;;;;;4952954;29;20139;-67
2022/03/08 02:30:23;;;;;;;20.55;14.27;;;1.10;93.20;;;;;;4937388;29;20071;-66
2022/03/08 02:32:50;;;;;;;19.73;13.45;;;1.00;93.00;;;;;;4954998;28;20054;-67
2022/03/08 02:35:22;;;;;;;22.38;14.13;;;1.00;93.20;;;;;;4953202;29;20053;-67
2022/03/08 02:37:52;;;;;;;24.30;13.90;;;1.00;93.20;;;;;;4955279;28;20073;-66
2022/03/08 02:40:21;;;;;;;22.13;14.73;;;1.00;93.30;;;;;;4953665;29;20046;-66
2022/03/08 02:42:48;;;;;;;20.03;12.90;;;1.00;93.10;;;;;;4953145;29;20050;-66
2022/03/08 02:45:16;;;;;;;25.77;14.10;;;1.00;93.10;;;;;;4952674;29;20055;-66
2022/03/08 02:47:43;;;;;;;22.80;14.35;;;0.90;93.00;;;;;;4952793;28;20131;-66
2022/03/08 02:50:11;;;;;;;19.13;13.85;;;0.90;93.20;;;;;;4937495;29;20502;-65
2022/03/08 02:52:40;;;;;;;24.38;14.85;;;0.90;93.20;;;;;;4937871;29;20053;-66
2022/03/08 02:55:07;;;;;;;18.23;13.60;;;0.90;93.30;;;;;;4954826;28;20123;-66
2022/03/08 02:57:37;;;;;;;21.20;14.48;;;0.90;93.30;;;;;;4954712;28;20043;-66
2022/03/08 03:00:07;;;;;;;23.45;13.68;;;0.90;93.20;;;;;;4952980;28;20049;-66
2022/03/08 03:02:34;;;;;;;21.52;13.73;;;0.90;93.30;;;;;;4937605;29;20370;-66
2022/03/08 03:05:01;;;;;;;21.75;14.23;;;0.90;93.20;;;;;;4953226;29;20094;-66
2022/03/08 03:07:28;;;;;;;26.55;16.55;;;0.90;93.40;;;;;;4952692;29;20047;-66
2022/03/08 03:09:55;;;;;;;24.90;15.02;;;0.90;93.70;;;;;;4954931;28;20051;-66
2022/03/08 03:12:22;;;;;;;21.67;14.02;;;0.80;93.40;;;;;;4954617;29;20477;-66
2022/03/08 03:14:50;;;;;;;20.27;13.07;;;0.80;93.50;;;;;;4944188;29;20059;-66
2022/03/08 03:17:17;;;;;;;22.05;15.45;;;0.80;93.70;;;;;;4936962;29;20502;-65
2022/03/08 03:19:44;;;;;;;23.33;15.10;;;0.80;93.60;;;;;;4953957;28;20051;-65
2022/03/08 03:22:11;;;;;;;25.92;15.23;;;0.80;93.70;;;;;;4953112;29;20094;-65
2022/03/08 03:24:38;;;;;;;24.02;15.55;;;0.80;93.80;;;;;;4953224;29;20411;-65
2022/03/08 03:27:05;;;;;;;22.42;14.70;;;0.70;93.80;;;;;;4954782;28;20059;-65
2022/03/08 03:29:32;;;;;;;23.40;15.38;;;0.70;94.00;;;;;;4952916;28;20051;-66
2022/03/08 03:31:59;;;;;;;22.67;14.40;;;0.70;94.10;;;;;;4953046;29;20396;-65
2022/03/08 03:34:26;;;;;;;33.00;15.25;;;0.60;94.30;;;;;;4954155;28;20055;-65
2022/03/08 03:36:53;;;;;;;22.20;14.43;;;0.60;94.30;;;;;;4936444;29;20467;-66
2022/03/08 03:39:20;;;;;;;27.42;14.25;;;0.60;94.30;;;;;;4953138;29;20050;-65
2022/03/08 03:41:47;;;;;;;26.83;15.55;;;0.60;94.40;;;;;;4952813;29;20059;-66
2022/03/08 03:44:14;;;;;;;23.50;13.43;;;0.60;94.80;;;;;;4954289;28;20047;-65
2022/03/08 03:46:41;;;;;;;23.45;14.43;;;0.60;94.90;;;;;;4953872;29;20039;-66
2022/03/08 03:49:08;;;;;;;23.10;15.23;;;0.60;94.90;;;;;;4945533;29;20487;-65
2022/03/08 03:51:35;;;;;;;24.55;14.50;;;0.60;95.20;;;;;;4943961;29;20051;-67
2022/03/08 03:54:02;;;;;;;21.38;14.23;;;0.50;95.50;;;;;;4932429;29;20397;-65
2022/03/08 03:56:29;;;;;;;25.45;14.50;;;0.50;95.50;;;;;;4941812;29;20057;-66
2022/03/08 03:58:56;;;;;;;22.48;16.15;;;0.50;95.50;;;;;;4958652;28;20523;-65
2022/03/08 04:01:24;;;;;;;25.63;15.27;;;0.50;95.60;;;;;;4958269;28;20050;-65
2022/03/08 04:03:51;;;;;;;25.65;15.90;;;0.50;96.00;;;;;;4958692;28;20043;-65
2022/03/08 04:06:19;;;;;;;24.38;15.60;;;0.50;96.20;;;;;;4952369;29;20051;-65
2022/03/08 04:08:46;;;;;;;26.63;15.10;;;0.50;96.40;;;;;;4953181;28;20425;-67
2022/03/08 04:11:13;;;;;;;24.15;15.32;;;0.50;96.60;;;;;;4936178;29;20142;-65
2022/03/08 04:13:41;;;;;;;20.80;14.35;;;0.50;96.70;;;;;;4924427;29;20539;-66
2022/03/08 04:16:10;;;;;;;24.40;14.98;;;0.50;97.00;;;;;;4939608;29;20491;-66
2022/03/08 04:18:37;;;;;;;23.67;15.90;;;0.40;97.30;;;;;;4936922;29;20048;-65
2022/03/08 04:21:04;;;;;;;21.67;14.35;;;0.50;97.40;;;;;;4953650;28;20193;-65
2022/03/08 04:23:31;;;;;;;24.05;13.95;;;0.40;97.50;;;;;;4953840;28;20082;-65
2022/03/08 04:25:58;;;;;;;23.05;14.82;;;0.40;97.80;;;;;;4926980;29;20056;-67
2022/03/08 04:28:25;;;;;;;27.17;15.10;;;0.40;98.10;;;;;;4953408;28;20062;-65
2022/03/08 04:30:52;;;;;;;30.10;18.30;;;0.40;98.30;;;;;;4951052;28;20514;-66
2022/03/08 04:33:19;;;;;;;23.60;15.98;;;0.40;98.40;;;;;;4952640;28;20046;-65
2022/03/08 04:35:46;;;;;;;25.55;15.57;;;0.40;98.80;;;;;;4935688;29;20162;-66
2022/03/08 04:38:13;;;;;;;24.58;15.38;;;0.40;98.60;;;;;;4936126;29;20513;-65
2022/03/08 04:40:40;;;;;;;25.45;15.07;;;0.40;99.00;;;;;;4952028;29;20058;-65
2022/03/08 04:43:07;;;;;;;27.63;16.63;;;0.40;99.40;;;;;;4951640;29;20133;-66
2022/03/08 04:45:34;;;;;;;32.70;16.77;;;0.50;99.70;;;;;;4951207;29;20058;-65
2022/03/08 04:48:02;;;;;;;25.77;16.17;;;0.50;99.90;;;;;;4935232;29;20047;-66
2022/03/08 04:50:29;;;;;;;25.38;17.67;;;0.50;99.90;;;;;;4950800;29;20142;-66
2022/03/08 04:52:56;;;;;;;27.00;16.30;;;0.50;99.90;;;;;;4951641;29;20050;-65
2022/03/08 04:55:27;;;;;;;28.95;18.58;;;0.50;99.90;;;;;;4952777;29;20055;-65
2022/03/08 04:57:54;;;;;;;26.60;16.55;;;0.60;99.90;;;;;;4952088;28;20069;-65
2022/03/08 05:00:22;;;;;;;30.52;18.52;;;0.60;99.90;;;;;;4951337;28;20406;-65
2022/03/08 05:02:49;;;;;;;29.67;19.35;;;0.60;99.90;;;;;;4952679;28;20050;-65
2022/03/08 05:05:16;;;;;;;24.98;16.15;;;0.70;99.90;;;;;;4950894;29;20491;-67
2022/03/08 05:07:45;;;;;;;27.67;16.92;;;0.70;99.90;;;;;;4951033;29;20055;-65
2022/03/08 05:10:12;;;;;;;29.25;17.23;;;0.70;99.90;;;;;;4935463;29;20051;-65
2022/03/08 05:12:39;;;;;;;30.33;18.10;;;0.70;99.90;;;;;;4951539;29;20081;-66
2022/03/08 05:15:07;;;;;;;26.95;17.90;;;0.70;99.90;;;;;;4950853;29;20210;-65
2022/03/08 05:17:34;;;;;;;31.80;19.30;;;0.70;99.90;;;;;;4950440;29;20085;-65
2022/03/08 05:20:03;;;;;;;25.17;16.50;;;0.70;99.90;;;;;;4951090;29;20054;-65
2022/03/08 05:22:31;;;;;;;29.52;17.73;;;0.70;99.90;;;;;;4950943;29;20452;-65
2022/03/08 05:24:58;;;;;;;27.52;17.25;;;0.80;99.90;;;;;;4951917;29;20130;-65
2022/03/08 05:27:26;;;;;;;29.67;17.85;;;0.80;99.90;;;;;;4951685;28;20452;-64
2022/03/08 05:29:54;;;;;;;39.58;22.05;;;0.80;99.90;;;;;;4951417;28;20067;-66
2022/03/08 05:32:21;;;;;;;56.85;29.63;;;0.90;99.90;;;;;;4951459;28;20345;-67
2022/03/08 05:34:48;;;;;;;31.10;19.55;;;0.90;99.90;;;;;;4944080;28;20562;-65
2022/03/08 05:37:15;;;;;;;29.13;16.80;;;0.90;99.90;;;;;;4953977;28;20495;-66
2022/03/08 05:39:42;;;;;;;30.25;18.98;;;0.90;99.90;;;;;;4955891;28;20517;-67
2022/03/08 05:42:09;;;;;;;33.20;18.00;;;0.90;99.90;;;;;;4932709;29;20062;-65
2022/03/08 05:44:36;;;;;;;27.67;18.10;;;0.90;99.90;;;;;;4936478;29;20565;-65
2022/03/08 05:47:04;;;;;;;29.17;18.45;;;1.00;99.90;;;;;;4928005;29;20089;-65
2022/03/08 05:49:31;;;;;;;31.20;17.58;;;1.10;99.90;;;;;;4953654;28;20090;-65
2022/03/08 05:51:58;;;;;;;29.23;17.55;;;1.10;99.90;;;;;;4954331;29;20048;-65
2022/03/08 05:54:25;;;;;;;30.30;18.52;;;1.10;99.90;;;;;;4935542;29;20039;-65
2022/03/08 05:56:52;;;;;;;28.30;18.20;;;1.10;99.90;;;;;;4941120;29;20384;-65
2022/03/08 05:59:19;;;;;;;34.88;19.20;;;1.10;99.90;;;;;;4953633;28;20053;-66
2022/03/08 06:01:46;;;;;;;31.85;19.67;;;1.10;99.90;;;;;;4953623;29;20055;-65
2022/03/08 06:04:13;;;;;;;32.47;21.13;;;1.20;99.90;;;;;;4953934;29;20416;-65
2022/03/08 06:06:41;;;;;;;32.70;19.77;;;1.20;99.90;;;;;;4939073;29;20059;-65
2022/03/08 06:09:08;;;;;;;32.13;20.55;;;1.30;99.90;;;;;;4953474;29;20329;-65
2022/03/08 06:11:34;;;;;;;28.88;18.67;;;1.40;99.90;;;;;;4955527;28;20069;-65
2022/03/08 06:14:01;;;;;;;34.20;19.88;;;1.40;99.90;;;;;;4954499;29;20070;-65
2022/03/08 06:16:28;;;;;;;32.10;18.25;;;1.50;99.90;;;;;;4955520;28;20053;-65
2022/03/08 06:18:56;;;;;;;37.55;21.50;;;1.60;99.90;;;;;;4936660;29;20058;-65
2022/03/08 06:21:30;;;;;;;35.25;19.63;;;1.60;99.90;;;;;;4930290;29;20055;-65
2022/03/08 06:23:57;;;;;;;30.23;19.08;;;1.60;99.90;;;;;;4953500;29;20059;-65
2022/03/08 06:26:24;;;;;;;30.77;18.77;;;1.60;99.90;;;;;;4954522;29;20055;-66
2022/03/08 06:28:51;;;;;;;30.85;20.02;;;1.60;99.90;;;;;;4937880;29;20127;-65
2022/03/08 06:31:18;;;;;;;27.05;17.63;;;1.60;99.90;;;;;;4953740;28;20055;-65
2022/03/08 06:33:45;;;;;;;29.42;19.27;;;1.60;99.90;;;;;;4937916;29;20055;-66
2022/03/08 06:36:12;;;;;;;29.08;18.30;;;1.60;99.90;;;;;;4937663;29;20086;-66
2022/03/08 06:38:39;;;;;;;32.20;20.17;;;1.60;99.90;;;;;;4921057;29;20065;-65
2022/03/08 06:41:09;;;;;;;30.58;19.95;;;1.60;99.90;;;;;;4960290;28;20126;-65
2022/03/08 06:43:35;;;;;;;31.08;18.65;;;1.60;99.90;;;;;;4960671;28;20043;-65
2022/03/08 06:46:02;;;;;;;28.15;18.25;;;1.60;99.90;;;;;;4937270;29;20496;-65
2022/03/08 06:48:33;;;;;;;35.95;21.27;;;1.60;99.90;;;;;;4937921;29;20086;-65
2022/03/08 06:51:00;;;;;;;31.85;19.77;;;1.70;99.90;;;;;;4937241;29;20043;-64
2022/03/08 06:53:27;;;;;;;31.33;20.52;;;1.70;99.90;;;;;;4952784;29;20137;-67
2022/03/08 06:55:54;;;;;;;30.30;19.65;;;1.70;99.90;;;;;;4935418;29;20056;-69
2022/03/08 06:58:22;;;;;;;35.40;22.23;;;1.70;99.90;;;;;;4939655;28;20051;-68
2022/03/08 07:00:49;;;;;;;36.05;23.15;;;1.80;99.90;;;;;;4952977;28;20043;-69
2022/03/08 07:03:16;;;;;;;31.73;20.45;;;1.80;99.90;;;;;;4936860;29;20054;-65
2022/03/08 07:05:43;;;;;;;34.55;19.23;;;1.90;99.90;;;;;;4951415;29;20106;-65
2022/03/08 07:08:10;;;;;;;31.40;20.70;;;1.80;99.90;;;;;;4952285;28;20051;-72
2022/03/08 07:10:37;;;;;;;32.28;20.13;;;1.90;99.90;;;;;;4919586;29;20051;-71
2022/03/08 07:13:04;;;;;;;30.75;19.50;;;1.90;99.90;;;;;;4951375;28;20047;-69
2022/03/08 07:15:32;;;;;;;31.13;19.52;;;1.90;99.90;;;;;;4939577;29;20628;-67
2022/03/08 07:17:59;;;;;;;31.35;22.05;;;2.00;99.90;;;;;;4952659;28;20043;-72
2022/03/08 07:20:27;;;;;;;85.10;50.17;;;2.00;99.90;;;;;;4952748;28;20070;-73
2022/03/08 07:22:59;;;;;;;37.35;24.27;;;2.00;99.90;;;;;;4950251;29;20089;-77
2022/03/08 07:25:26;;;;;;;34.03;21.27;;;2.10;99.90;;;;;;4951761;28;20114;-71
2022/03/08 07:27:53;;;;;;;34.05;21.05;;;2.10;99.90;;;;;;4951390;28;20047;-72
2022/03/08 07:30:39;;;;;;;37.63;24.10;;;2.10;99.90;;;;;;4950620;28;20058;-67
2022/03/08 07:33:06;;;;;;;34.35;21.73;;;2.10;99.90;;;;;;4915661;29;20079;-67
2022/03/08 07:35:36;;;;;;;30.40;20.23;;;2.10;99.90;;;;;;4933496;29;20502;-67
2022/03/08 07:38:02;;;;;;;39.45;22.35;;;2.20;99.90;;;;;;4956619;28;20069;-65
2022/03/08 07:40:31;;;;;;;31.90;19.75;;;2.20;99.90;;;;;;4952887;28;20383;-65
2022/03/08 07:42:59;;;;;;;39.53;22.15;;;2.30;99.90;;;;;;4955497;28;20498;-66
2022/03/08 07:45:26;;;;;;;33.63;20.92;;;2.20;99.90;;;;;;4960187;28;20411;-65
2022/03/08 07:47:53;;;;;;;36.58;21.30;;;2.30;99.90;;;;;;4951166;28;20067;-65
2022/03/08 07:50:22;;;;;;;34.78;20.27;;;2.40;99.90;;;;;;4952071;28;20086;-72
2022/03/08 07:52:49;;;;;;;34.15;19.98;;;2.40;99.90;;;;;;4948472;29;20079;-67
2022/03/08 07:55:18;;;;;;;34.90;19.80;;;2.40;99.90;;;;;;4932575;29;20083;-68
2022/03/08 07:57:46;;;;;;;32.03;20.42;;;2.50;99.90;;;;;;4951939;28;20094;-67
2022/03/08 08:00:27;;;;;;;33.72;21.55;;;2.60;99.90;;;;;;4953035;28;20081;-68
2022/03/08 08:02:55;;;;;;;34.08;20.88;;;2.60;99.90;;;;;;4957063;28;20047;-69
2022/03/08 08:05:22;;;;;;;32.00;20.60;;;2.70;99.90;;;;;;4963040;28;20050;-69
2022/03/08 08:07:49;;;;;;;34.03;21.05;;;2.80;99.90;;;;;;4953190;28;20059;-69
2022/03/08 08:10:16;;;;;;;34.83;21.88;;;2.80;99.90;;;;;;4931332;29;20052;-70
2022/03/08 08:12:43;;;;;;;36.33;22.40;;;2.80;99.90;;;;;;4935666;29;20162;-68
2022/03/08 08:15:10;;;;;;;31.40;22.20;;;2.90;99.90;;;;;;4954464;28;20050;-67
2022/03/08 08:17:37;;;;;;;32.72;21.13;;;3.00;99.90;;;;;;4953914;28;20130;-69
2022/03/08 08:20:04;;;;;;;33.55;21.05;;;3.10;99.90;;;;;;4950775;28;20587;-70
2022/03/08 08:22:31;;;;;;;34.72;22.55;;;3.10;99.90;;;;;;4950091;29;20089;-67
2022/03/08 08:24:58;;;;;;;34.55;21.20;;;3.20;99.90;;;;;;4948999;28;20117;-68
2022/03/08 08:27:25;;;;;;;31.55;20.13;;;3.30;99.90;;;;;;4948922;29;20043;-69
2022/03/08 08:29:55;;;;;;;33.92;22.15;;;3.40;99.90;;;;;;4949219;28;20050;-71
2022/03/08 08:32:22;;;;;;;33.30;21.55;;;3.40;99.90;;;;;;4923885;29;20139;-70
2022/03/08 08:34:49;;;;;;;34.78;23.05;;;3.50;99.90;;;;;;4928834;29;20047;-69
2022/03/08 08:37:16;;;;;;;210.52;141.75;;;3.60;99.90;;;;;;4921697;29;20096;-71
2022/03/08 08:39:43;;;;;;;46.42;32.28;;;3.60;99.90;;;;;;4944556;29;20106;-71
2022/03/08 08:42:11;;;;;;;37.20;24.70;;;3.70;99.90;;;;;;4915013;29;20047;-72
2022/03/08 08:44:44;;;;;;;33.90;23.85;;;3.80;99.90;;;;;;4931067;29;20135;-69
2022/03/08 08:47:12;;;;;;;84.88;56.28;;;3.80;99.90;;;;;;4948947;29;20056;-71
2022/03/08 08:49:39;;;;;;;41.72;27.83;;;3.90;99.90;;;;;;4929924;29;20107;-70
2022/03/08 08:52:11;;;;;;;33.45;23.67;;;3.90;99.40;;;;;;4944649;29;20054;-71
2022/03/08 08:54:38;;;;;;;36.47;23.35;;;4.00;98.90;;;;;;4945383;28;20051;-69
2022/03/08 08:57:06;;;;;;;34.08;23.25;;;4.00;99.00;;;;;;4951086;28;20047;-68
2022/03/08 08:59:33;;;;;;;35.97;22.33;;;4.10;98.30;;;;;;4950191;28;20138;-66
2022/03/08 09:02:10;;;;;;;33.20;21.45;;;4.20;98.40;;;;;;4949596;29;20089;-78
2022/03/08 09:04:38;;;;;;;41.72;22.55;;;4.20;98.30;;;;;;4949077;29;20051;-70
2022/03/08 09:07:05;;;;;;;31.88;22.08;;;4.30;98.40;;;;;;4942661;29;20058;-69
2022/03/08 09:09:32;;;;;;;31.08;21.23;;;4.30;97.30;;;;;;4918099;29;20044;-70
2022/03/08 09:11:59;;;;;;;32.28;23.50;;;4.40;97.60;;;;;;4943721;28;20057;-72
2022/03/08 09:14:26;;;;;;;31.73;21.10;;;4.60;97.20;;;;;;4917457;29;20403;-67
2022/03/08 09:16:54;;;;;;;33.63;22.30;;;4.90;95.60;;;;;;4936690;29;20122;-66
2022/03/08 09:19:22;;;;;;;35.65;21.80;;;4.90;94.90;;;;;;4949757;28;20214;-66
2022/03/08 09:21:50;;;;;;;35.88;23.45;;;4.80;94.90;;;;;;4939177;29;20170;-66
2022/03/08 09:24:17;;;;;;;35.92;21.50;;;4.70;94.80;;;;;;4951409;28;20561;-68
2022/03/08 09:26:44;;;;;;;33.58;24.30;;;4.80;94.90;;;;;;4970703;28;20065;-69
2022/03/08 09:29:11;;;;;;;35.35;22.45;;;4.80;94.70;;;;;;4956246;28;20055;-66
2022/03/08 09:31:38;;;;;;;34.53;22.73;;;4.80;94.50;;;;;;4954171;29;20059;-66
2022/03/08 09:34:06;;;;;;;33.90;23.13;;;4.90;95.00;;;;;;4939229;29;20391;-67
2022/03/08 09:36:33;;;;;;;32.47;21.83;;;5.00;94.50;;;;;;4939295;29;20055;-66
2022/03/08 09:39:04;;;;;;;34.90;22.90;;;5.10;93.90;;;;;;4957609;28;20479;-70
2022/03/08 09:41:31;;;;;;;35.03;23.30;;;5.20;94.00;;;;;;4966747;28;20122;-67
2022/03/08 09:43:59;;;;;;;34.83;23.75;;;5.20;93.50;;;;;;4973539;28;20153;-66
2022/03/08 09:46:26;;;;;;;34.72;23.73;;;5.30;93.20;;;;;;4943754;28;20039;-66
2022/03/08 09:48:53;;;;;;;35.92;24.17;;;5.30;93.10;;;;;;4955844;28;20059;-70
2022/03/08 09:51:22;;;;;;;33.13;22.17;;;5.40;93.10;;;;;;4934199;28;20483;-66
2022/03/08 09:53:53;;;;;;;35.70;22.50;;;5.50;92.40;;;;;;4954292;28;20051;-69
2022/03/08 09:56:20;;;;;;;34.42;22.63;;;5.50;92.40;;;;;;4955653;28;20093;-67
2022/03/08 09:58:47;;;;;;;34.65;24.63;;;5.60;92.60;;;;;;4954249;28;20199;-67
2022/03/08 10:01:16;;;;;;;36.13;23.88;;;5.80;92.50;;;;;;4938054;29;20043;-68
2022/03/08 10:03:44;;;;;;;37.63;23.98;;;5.80;92.20;;;;;;4935926;29;20138;-76
2022/03/08 10:06:13;;;;;;;31.88;22.83;;;5.90;92.10;;;;;;4918693;29;20051;-75
2022/03/08 10:08:40;;;;;;;34.13;23.98;;;5.90;92.40;;;;;;4937078;29;20082;-75
2022/03/08 10:11:09;;;;;;;31.88;21.50;;;6.10;92.00;;;;;;4937111;29;20057;-75
2022/03/08 10:13:53;;;;;;;33.03;23.27;;;6.10;92.30;;;;;;4925496;29;20089;-75
2022/03/08 10:16:24;;;;;;;35.72;23.67;;;6.20;91.40;;;;;;4924793;29;20500;-75
2022/03/08 10:18:58;;;;;;;33.83;22.88;;;6.20;91.20;;;;;;4924784;29;20098;-75
2022/03/08 10:21:33;;;;;;;31.40;22.00;;;6.30;90.80;;;;;;4939582;29;20079;-75
2022/03/08 10:24:19;;;;;;;34.67;21.65;;;6.50;91.20;;;;;;4954669;28;20110;-75
2022/03/08 10:27:00;;;;;;;30.40;21.77;;;6.50;90.90;;;;;;4954741;29;20139;-76
2022/03/08 10:29:35;;;;;;;36.88;22.77;;;6.60;90.00;;;;;;4940125;29;20051;-75
2022/03/08 10:32:08;;;;;;;32.35;23.00;;;6.60;90.40;;;;;;4954545;29;20055;-76
2022/03/08 10:34:36;;;;;;;33.60;22.98;;;6.80;90.30;;;;;;4955659;28;20487;-75
2022/03/08 10:37:13;;;;;;;31.67;22.08;;;6.80;90.20;;;;;;4938977;29;20142;-76
2022/03/08 10:39:52;;;;;;;32.47;22.75;;;6.90;89.30;;;;;;4940116;29;20150;-76
2022/03/08 10:42:36;;;;;;;37.55;24.50;;;7.00;88.00;;;;;;4923576;29;20099;-76
2022/03/08 10:45:13;;;;;;;34.42;22.63;;;7.00;87.10;;;;;;4954147;29;20047;-76
2022/03/08 10:47:50;;;;;;;33.13;21.60;;;6.90;87.50;;;;;;4953271;28;20520;-76
2022/03/08 10:50:18;;;;;;;32.92;22.05;;;7.00;88.40;;;;;;4923447;29;20138;-75
2022/03/08 10:52:47;;;;;;;36.40;24.90;;;7.00;88.10;;;;;;4937865;29;20052;-75
2022/03/08 10:55:16;;;;;;;34.03;23.35;;;7.00;88.20;;;;;;4918872;29;20519;-76
2022/03/08 10:58:08;;;;;;;37.28;22.77;;;7.00;88.90;;;;;;4919449;29;20138;-76
2022/03/08 11:00:41;;;;;;;35.15;22.40;;;7.10;87.80;;;;;;4953798;28;20046;-76
2022/03/08 11:03:13;;;;;;;32.50;23.55;;;7.20;87.90;;;;;;4937473;29;20058;-76
2022/03/08 11:05:44;;;;;;;31.23;23.40;;;7.20;85.70;;;;;;4938487;29;20051;-76
2022/03/08 11:08:12;;;;;;;31.73;21.35;;;7.30;86.70;;;;;;4954886;29;20052;-76
2022/03/08 11:10:40;;;;;;;33.65;23.13;;;7.50;87.60;;;;;;4937443;29;20139;-76
2022/03/08 11:13:09;;;;;;;30.90;21.10;;;7.60;84.40;;;;;;4954830;28;20043;-76
2022/03/08 11:15:39;;;;;;;36.05;23.48;;;7.60;84.70;;;;;;4954143;28;20052;-76
2022/03/08 11:18:10;;;;;;;33.80;23.60;;;7.80;83.80;;;;;;4934049;29;20051;-76
2022/03/08 11:20:39;;;;;;;32.83;22.88;;;7.80;83.60;;;;;;4935551;29;20047;-76
2022/03/08 11:23:06;;;;;;;31.88;21.63;;;7.90;83.50;;;;;;4936546;28;20083;-76
2022/03/08 11:25:40;;;;;;;30.92;21.45;;;7.90;84.40;;;;;;4937609;29;20059;-76
2022/03/08 11:28:24;;;;;;;32.40;22.23;;;7.90;82.50;;;;;;4939852;29;20137;-76
2022/03/08 11:30:53;;;;;;;33.17;22.63;;;8.00;81.80;;;;;;4953935;28;20181;-76
2022/03/08 11:34:09;;;;;;;30.17;21.58;;;8.10;81.30;;;;;;4937950;29;20101;-76
2022/03/08 11:36:45;;;;;;;35.47;24.35;;;8.10;81.00;;;;;;4941971;29;20087;-77
2022/03/08 11:39:28;;;;;;;32.97;22.48;;;8.10;82.10;;;;;;4953137;29;20051;-77
2022/03/08 11:42:18;;;;;;;30.70;23.15;;;8.20;82.10;;;;;;4952934;29;20047;-76
2022/03/08 11:45:01;;;;;;;30.73;21.55;;;8.40;79.80;;;;;;4952537;29;20059;-76
2022/03/08 11:47:46;;;;;;;35.13;24.95;;;8.50;79.80;;;;;;4953973;29;20055;-76
2022/03/08 11:50:24;;;;;;;31.77;22.33;;;8.50;79.30;;;;;;4933556;29;20048;-76
2022/03/08 11:53:07;;;;;;;43.05;23.52;;;8.50;78.00;;;;;;4934219;28;20052;-76
2022/03/08 11:55:43;;;;;;;27.00;19.10;;;8.50;79.00;;;;;;4939149;29;20143;-76
2022/03/08 11:58:20;;;;;;;32.95;22.65;;;8.60;78.60;;;;;;4952777;29;20055;-77
2022/03/08 12:00:53;;;;;;;31.05;20.85;;;8.70;77.50;;;;;;4952616;29;20538;-77
2022/03/08 12:03:23;;;;;;;34.83;24.38;;;8.90;78.10;;;;;;4936617;29;20130;-78
2022/03/08 12:06:18;;;;;;;90.70;63.42;;;9.00;78.30;;;;;;4953837;28;20059;-74
2022/03/08 12:08:46;;;;;;;40.53;29.38;;;9.10;78.40;;;;;;4935088;29;20079;-76
2022/03/08 12:11:25;;;;;;;32.07;24.90;;;9.20;78.30;;;;;;4922638;29;20272;-76
2022/03/08 12:14:15;;;;;;;31.40;23.45;;;9.20;77.50;;;;;;4951900;29;20387;-70
2022/03/08 12:17:06;;;;;;;30.98;23.58;;;9.20;76.70;;;;;;4950132;29;20134;-73
2022/03/08 12:19:43;;;;;;;34.38;24.15;;;9.20;77.00;;;;;;4939857;28;20381;-76
2022/03/08 12:22:15;;;;;;;31.05;22.63;;;9.20;77.20;;;;;;4952175;29;20098;-72
2022/03/08 12:24:47;;;;;;;34.72;24.48;;;9.30;76.60;;;;;;4954242;28;20094;-72
2022/03/08 12:27:16;;;;;;;31.55;23.42;;;9.30;77.60;;;;;;4935898;29;20043;-73
2022/03/08 12:30:05;;;;;;;32.95;22.80;;;9.40;77.00;;;;;;4949593;28;20050;-73
2022/03/08 12:32:33;;;;;;;34.25;22.60;;;9.40;76.60;;;;;;4949716;29;20059;-72
2022/03/08 12:35:25;;;;;;;33.00;23.30;;;9.50;76.30;;;;;;4932209;29;20048;-74
2022/03/08 12:37:58;;;;;;;29.20;21.15;;;9.50;73.90;;;;;;4930559;29;20558;-72
2022/03/08 12:40:35;;;;;;;29.08;22.30;;;9.50;75.90;;;;;;4938994;29;20043;-76
2022/03/08 12:43:10;;;;;;;30.50;21.75;;;9.60;75.10;;;;;;4951640;29;20047;-75
2022/03/08 12:45:47;;;;;;;26.25;19.27;;;9.60;75.20;;;;;;4963093;28;20047;-76